Time;durP1;ratioP1;P1;durP2;ratioP2;P2;SDS_P1;SDS_P2;PMS_P1;PMS_P2;Temp;Humidity;BMP_temperature;BMP_pressure;BME280_temperature;BME280_humidity;BME280_pressure;Samples;Min_cycle;Max_cycle;Signal;HPM_P1;HPM_P2
2022/12/22 03:27:51;;;;;;;43.17;21.87;;;10.20;99.90;;;;;;5112434;28;20294;-69
2022/12/22 03:30:18;;;;;;;43.57;22.30;;;10.20;99.90;;;;;;5110054;28;20289;-69
2022/12/22 03:32:45;;;;;;;46.23;21.33;;;10.30;99.90;;;;;;5109933;28;20241;-70
2022/12/22 03:35:12;;;;;;;41.37;21.33;;;10.30;99.90;;;;;;5108777;28;20205;-69
2022/12/22 03:37:39;;;;;;;41.00;21.03;;;10.30;99.90;;;;;;5111405;28;20310;-70
2022/12/22 03:40:07;;;;;;;41.17;20.97;;;10.30;99.90;;;;;;5112776;28;20278;-69
2022/12/22 03:48:05;;;;;;;41.33;20.97;;;10.30;99.90;;;;;;5110348;28;20310;-70
2022/12/22 03:50:32;;;;;;;40.63;21.27;;;10.30;99.90;;;;;;5112190;28;20262;-70
2022/12/22 03:52:59;;;;;;;44.60;20.63;;;10.30;99.90;;;;;;5108003;28;20203;-69
2022/12/22 03:55:26;;;;;;;43.40;21.37;;;10.30;99.90;;;;;;5113040;28;20228;-69
2022/12/22 03:57:53;;;;;;;40.50;19.87;;;10.30;99.90;;;;;;5108641;28;20223;-69
2022/12/22 04:00:19;;;;;;;42.33;19.90;;;10.30;99.90;;;;;;5110987;28;20234;-69
2022/12/22 04:02:46;;;;;;;41.70;20.80;;;10.40;99.90;;;;;;5090677;28;20216;-69
2022/12/22 04:05:13;;;;;;;44.47;21.03;;;10.40;99.90;;;;;;5092603;28;20195;-69
2022/12/22 04:07:40;;;;;;;42.97;19.87;;;10.40;99.90;;;;;;5112020;28;20241;-69
2022/12/22 04:12:54;;;;;;;39.63;20.07;;;10.40;99.90;;;;;;5109474;28;20219;-69
2022/12/22 04:15:25;;;;;;;42.33;20.13;;;10.40;99.90;;;;;;5111385;28;20209;-69
2022/12/22 04:17:52;;;;;;;45.57;20.33;;;10.40;99.90;;;;;;5107721;28;20227;-70
2022/12/22 04:20:22;;;;;;;46.80;19.53;;;10.40;99.90;;;;;;5111492;28;20309;-69
2022/12/22 04:22:48;;;;;;;46.20;20.20;;;10.40;99.90;;;;;;5111573;28;20726;-69
2022/12/22 04:25:15;;;;;;;46.00;20.57;;;10.40;99.90;;;;;;5112109;28;20209;-69
2022/12/22 04:27:43;;;;;;;44.73;20.87;;;10.40;99.90;;;;;;5093711;28;20751;-69
2022/12/22 04:30:11;;;;;;;46.33;20.07;;;10.50;99.90;;;;;;5110248;28;20210;-69
2022/12/22 04:32:38;;;;;;;49.17;21.17;;;10.50;99.90;;;;;;5107948;28;20329;-69
2022/12/22 04:35:06;;;;;;;42.37;19.83;;;10.50;99.90;;;;;;5085762;28;20574;-69
2022/12/22 04:37:33;;;;;;;49.20;21.67;;;10.50;99.90;;;;;;5111133;28;20202;-69
2022/12/22 04:40:01;;;;;;;60.13;22.03;;;10.40;99.90;;;;;;5110486;28;20207;-70
2022/12/22 04:42:28;;;;;;;51.57;21.23;;;10.40;99.90;;;;;;5093415;28;20210;-70
2022/12/22 04:44:55;;;;;;;53.37;22.20;;;10.40;99.90;;;;;;5109279;28;20631;-69
2022/12/22 04:47:21;;;;;;;58.17;22.43;;;10.40;99.90;;;;;;5109342;28;20973;-70
2022/12/22 04:49:48;;;;;;;59.10;23.70;;;10.40;99.90;;;;;;5110852;28;20230;-70
2022/12/22 04:52:15;;;;;;;52.80;22.13;;;10.40;99.90;;;;;;5110080;28;20253;-69
2022/12/22 04:54:42;;;;;;;62.37;23.30;;;10.40;99.90;;;;;;5111080;28;20306;-68
2022/12/22 04:57:08;;;;;;;61.63;23.23;;;10.40;99.90;;;;;;5092124;28;20245;-70
2022/12/22 04:59:35;;;;;;;62.93;23.83;;;10.40;99.90;;;;;;5106014;28;20646;-69
2022/12/22 05:02:02;;;;;;;59.60;22.47;;;10.50;99.90;;;;;;5090823;28;20226;-70
2022/12/22 05:04:29;;;;;;;60.50;23.47;;;10.40;99.90;;;;;;5111238;28;20211;-69
2022/12/22 05:06:56;;;;;;;73.77;24.73;;;10.40;99.90;;;;;;5111328;28;20242;-69
2022/12/22 05:09:22;;;;;;;68.13;23.70;;;10.40;99.90;;;;;;5110499;28;20298;-69
2022/12/22 05:11:49;;;;;;;66.80;24.00;;;10.40;99.90;;;;;;5109773;28;20321;-70
2022/12/22 05:14:16;;;;;;;65.57;23.67;;;10.40;99.90;;;;;;5110618;28;20330;-69
2022/12/22 05:16:43;;;;;;;68.77;22.93;;;10.40;99.90;;;;;;5089595;28;20219;-70
2022/12/22 05:19:09;;;;;;;66.27;24.63;;;10.40;99.90;;;;;;5107539;28;20314;-70
2022/12/22 05:21:36;;;;;;;76.40;24.77;;;10.40;99.90;;;;;;5110922;28;20243;-71
2022/12/22 05:24:03;;;;;;;70.87;23.70;;;10.40;99.90;;;;;;5110504;28;20294;-69
2022/12/22 05:26:30;;;;;;;77.10;24.70;;;10.40;99.90;;;;;;5109486;28;21152;-69
2022/12/22 05:28:57;;;;;;;78.37;26.93;;;10.40;99.90;;;;;;5090534;28;20226;-69
2022/12/22 05:31:25;;;;;;;82.47;26.07;;;10.40;99.90;;;;;;5109039;28;20215;-69
2022/12/22 05:33:52;;;;;;;90.60;24.80;;;10.40;99.90;;;;;;5107622;28;20245;-69
2022/12/22 05:36:18;;;;;;;90.17;25.07;;;10.40;99.90;;;;;;5110809;28;20286;-70
2022/12/22 05:38:45;;;;;;;94.60;26.87;;;10.40;99.90;;;;;;5085317;28;20219;-69
2022/12/22 05:41:12;;;;;;;91.57;26.00;;;10.40;99.90;;;;;;5108212;28;20211;-70
2022/12/22 05:43:39;;;;;;;82.90;24.83;;;10.40;99.90;;;;;;5105691;28;20218;-70
2022/12/22 05:46:08;;;;;;;97.20;26.60;;;10.40;99.90;;;;;;5106156;28;20298;-69
2022/12/22 05:48:36;;;;;;;77.43;23.60;;;10.40;99.90;;;;;;5106061;28;20198;-70
2022/12/22 05:51:09;;;;;;;97.33;26.13;;;10.40;99.90;;;;;;5085783;28;20299;-70
2022/12/22 05:53:37;;;;;;;116.33;26.80;;;10.40;99.90;;;;;;5084398;28;20249;-70
2022/12/22 05:56:04;;;;;;;100.47;25.87;;;10.40;99.90;;;;;;5085465;28;20211;-69
2022/12/22 05:58:31;;;;;;;96.13;26.47;;;10.30;99.90;;;;;;5086946;28;20225;-70
2022/12/22 06:00:59;;;;;;;119.10;28.03;;;10.30;99.90;;;;;;5091789;28;20207;-69
2022/12/22 06:03:27;;;;;;;113.50;27.50;;;10.30;99.90;;;;;;5070262;28;20231;-70
2022/12/22 06:05:55;;;;;;;98.33;25.50;;;10.30;99.90;;;;;;5083726;28;20202;-70
2022/12/22 06:08:22;;;;;;;89.60;26.10;;;10.30;99.90;;;;;;5067840;28;20206;-70
2022/12/22 06:10:49;;;;;;;83.33;25.37;;;10.30;99.90;;;;;;5086660;28;20233;-70
2022/12/22 06:13:16;;;;;;;93.50;25.67;;;10.30;99.90;;;;;;5086523;28;20200;-70
2022/12/22 06:15:42;;;;;;;82.43;24.33;;;10.30;99.90;;;;;;5089070;28;20199;-70
2022/12/22 06:18:09;;;;;;;85.13;25.10;;;10.20;99.90;;;;;;5070941;28;20212;-71
2022/12/22 06:20:36;;;;;;;89.20;24.90;;;10.30;99.90;;;;;;5085143;28;20290;-70
2022/12/22 06:23:03;;;;;;;95.37;24.80;;;10.30;99.90;;;;;;5089081;28;20287;-71
2022/12/22 06:25:29;;;;;;;74.73;22.33;;;10.20;99.90;;;;;;5090090;28;20264;-70
2022/12/22 06:27:56;;;;;;;72.67;22.60;;;10.20;99.90;;;;;;5089716;28;20660;-70
2022/12/22 06:30:23;;;;;;;66.47;21.17;;;10.20;99.90;;;;;;5089707;28;20215;-70
2022/12/22 06:32:59;;;;;;;77.20;22.17;;;10.20;99.90;;;;;;5087395;28;20243;-72
2022/12/22 06:35:26;;;;;;;63.57;21.00;;;10.20;99.90;;;;;;5089432;28;20569;-71
2022/12/22 06:37:53;;;;;;;61.90;19.83;;;10.20;99.90;;;;;;5084590;28;20792;-70
2022/12/22 06:40:20;;;;;;;68.47;20.63;;;10.20;99.90;;;;;;5084510;28;20228;-70
2022/12/22 06:45:37;;;;;;;47.97;17.87;;;10.10;99.90;;;;;;5088012;28;20660;-70
2022/12/22 06:48:04;;;;;;;56.10;18.97;;;10.10;99.90;;;;;;5069468;28;20252;-70
2022/12/22 06:50:31;;;;;;;54.37;18.70;;;10.10;99.90;;;;;;5087193;28;20319;-69
2022/12/22 06:52:59;;;;;;;47.63;17.87;;;10.10;99.90;;;;;;5093093;28;20299;-70
2022/12/22 06:55:26;;;;;;;46.67;17.17;;;10.00;99.90;;;;;;5093861;28;20522;-70
2022/12/22 06:57:53;;;;;;;49.87;17.03;;;9.90;99.90;;;;;;5095464;28;20313;-70
2022/12/22 07:00:20;;;;;;;46.43;16.13;;;9.90;99.90;;;;;;5091683;28;20309;-69
2022/12/22 07:02:47;;;;;;;55.30;16.63;;;9.80;99.90;;;;;;5092691;28;20642;-70
2022/12/22 07:05:15;;;;;;;51.47;16.37;;;9.70;99.90;;;;;;5089427;28;20239;-70
2022/12/22 07:07:42;;;;;;;59.13;17.40;;;9.60;99.90;;;;;;5086034;28;20199;-70
2022/12/22 07:10:10;;;;;;;60.60;18.47;;;9.50;99.90;;;;;;5051965;28;20197;-69
2022/12/22 07:12:37;;;;;;;56.13;17.97;;;9.50;99.90;;;;;;5087611;28;20279;-69
2022/12/22 07:15:05;;;;;;;59.70;18.73;;;9.50;99.90;;;;;;5092875;28;20652;-69
2022/12/22 07:17:32;;;;;;;68.33;20.10;;;9.50;99.90;;;;;;5090267;28;20243;-70
2022/12/22 07:19:59;;;;;;;64.93;20.60;;;9.50;99.90;;;;;;5091963;28;20270;-70
2022/12/22 07:22:25;;;;;;;73.60;20.30;;;9.50;99.90;;;;;;5091795;28;20196;-70
2022/12/22 07:24:56;;;;;;;67.63;20.00;;;9.50;99.90;;;;;;5084038;28;21048;-70
2022/12/22 07:27:23;;;;;;;69.23;20.30;;;9.50;99.90;;;;;;5088075;28;20652;-69
2022/12/22 07:29:50;;;;;;;65.10;19.83;;;9.60;99.90;;;;;;5091418;28;20211;-70
2022/12/22 07:32:17;;;;;;;68.87;20.60;;;9.60;99.90;;;;;;5092251;28;20220;-70
2022/12/22 07:34:44;;;;;;;70.20;22.90;;;9.60;99.90;;;;;;5088926;28;20242;-69
2022/12/22 07:37:12;;;;;;;74.30;21.53;;;9.60;99.90;;;;;;5091227;28;20195;-70
2022/12/22 07:39:39;;;;;;;76.23;23.07;;;9.60;99.90;;;;;;5090638;28;20223;-69
2022/12/22 07:44:51;;;;;;;80.83;25.23;;;9.60;99.90;;;;;;5082195;28;20208;-69
2022/12/22 07:47:18;;;;;;;87.47;25.20;;;9.60;99.90;;;;;;5089889;28;20247;-69
2022/12/22 07:52:30;;;;;;;86.50;26.60;;;9.60;99.90;;;;;;5090199;28;20687;-69
2022/12/22 07:54:57;;;;;;;96.17;27.40;;;9.60;99.90;;;;;;5086064;28;20296;-69
2022/12/22 07:57:25;;;;;;;90.30;27.43;;;9.60;99.90;;;;;;5104200;28;20672;-70
2022/12/22 07:59:52;;;;;;;95.47;28.43;;;9.50;99.90;;;;;;5089657;28;20224;-70
2022/12/22 08:02:19;;;;;;;98.97;29.10;;;9.50;99.90;;;;;;5090163;28;20220;-70
2022/12/22 08:04:46;;;;;;;99.73;30.77;;;9.40;99.90;;;;;;5088222;28;20215;-70
2022/12/22 08:07:13;;;;;;;110.73;34.17;;;9.50;99.90;;;;;;5091576;28;20286;-68
2022/12/22 08:09:39;;;;;;;104.60;31.13;;;9.50;99.90;;;;;;5090168;28;20283;-69
2022/12/22 08:12:06;;;;;;;107.27;31.60;;;9.40;99.90;;;;;;5084097;28;20744;-68
2022/12/22 08:14:33;;;;;;;115.67;30.77;;;9.50;99.90;;;;;;5091115;28;20688;-69
2022/12/22 08:17:00;;;;;;;118.23;32.33;;;9.50;99.90;;;;;;5086669;28;20234;-69
2022/12/22 08:19:26;;;;;;;119.30;34.37;;;9.50;99.90;;;;;;5092634;28;20690;-69
2022/12/22 08:21:53;;;;;;;116.00;32.30;;;9.50;99.90;;;;;;5091854;28;20307;-69
2022/12/22 08:24:20;;;;;;;112.37;33.00;;;9.50;99.90;;;;;;5090187;28;20291;-70
2022/12/22 08:26:52;;;;;;;100.07;31.70;;;9.60;99.90;;;;;;5084044;28;20287;-71
2022/12/22 08:29:26;;;;;;;97.33;30.97;;;9.50;99.90;;;;;;5087606;28;20764;-69
2022/12/22 08:31:53;;;;;;;87.37;28.07;;;9.60;99.90;;;;;;5097582;28;20218;-69
2022/12/22 08:34:20;;;;;;;94.77;28.77;;;9.50;99.90;;;;;;5097273;28;20261;-70
2022/12/22 08:36:51;;;;;;;94.90;28.53;;;9.50;99.90;;;;;;5074585;28;20200;-70
2022/12/22 08:39:19;;;;;;;90.57;29.53;;;9.50;99.90;;;;;;5090519;28;20227;-69
2022/12/22 08:41:49;;;;;;;88.20;28.73;;;9.50;99.90;;;;;;5088570;28;20260;-70
2022/12/22 08:44:22;;;;;;;89.50;29.47;;;9.50;99.90;;;;;;5090233;28;20196;-70
2022/12/22 08:46:50;;;;;;;86.50;28.37;;;9.50;99.90;;;;;;5089537;28;20214;-70
2022/12/22 08:49:17;;;;;;;94.43;30.23;;;9.50;99.90;;;;;;5089721;28;20218;-70
2022/12/22 08:51:45;;;;;;;92.43;30.17;;;9.60;99.90;;;;;;5085479;28;20210;-70
2022/12/22 08:54:12;;;;;;;94.60;30.40;;;9.50;99.90;;;;;;5089879;28;20196;-69
2022/12/22 08:56:39;;;;;;;91.30;31.23;;;9.50;99.90;;;;;;5087398;28;20680;-70
2022/12/22 08:59:07;;;;;;;84.40;28.20;;;9.50;99.90;;;;;;5086559;28;20227;-71
2022/12/22 09:01:37;;;;;;;86.07;27.90;;;9.50;99.90;;;;;;5083678;28;20715;-70
2022/12/22 09:04:05;;;;;;;85.33;28.30;;;9.50;99.90;;;;;;5089663;28;20196;-70
2022/12/22 09:06:32;;;;;;;80.20;28.17;;;9.50;99.90;;;;;;5089422;28;20219;-70
2022/12/22 09:09:09;;;;;;;82.90;27.17;;;9.50;99.90;;;;;;5088709;28;20215;-71
2022/12/22 09:11:37;;;;;;;89.13;28.53;;;9.40;99.90;;;;;;5065389;28;20287;-69
2022/12/22 09:14:04;;;;;;;83.87;27.53;;;9.40;99.90;;;;;;5071243;28;20294;-70
2022/12/22 09:16:32;;;;;;;79.03;26.80;;;9.40;99.90;;;;;;5089256;28;20585;-69
2022/12/22 09:19:00;;;;;;;82.60;28.70;;;9.30;99.90;;;;;;5089691;28;20208;-69
2022/12/22 09:21:30;;;;;;;87.23;26.80;;;9.30;99.90;;;;;;5082577;28;20207;-69
2022/12/22 09:23:57;;;;;;;82.23;26.73;;;9.20;99.90;;;;;;5083937;28;20239;-69
2022/12/22 09:26:26;;;;;;;80.43;27.83;;;9.20;99.90;;;;;;5085111;28;20569;-70
2022/12/22 09:28:54;;;;;;;82.20;26.80;;;9.10;99.90;;;;;;5085603;28;20199;-70
2022/12/22 09:31:23;;;;;;;75.70;27.63;;;9.10;99.90;;;;;;5089972;28;20226;-69
2022/12/22 09:33:51;;;;;;;81.10;27.63;;;9.00;99.90;;;;;;5084639;28;20215;-69
2022/12/22 09:36:21;;;;;;;77.40;27.30;;;8.90;99.90;;;;;;5067799;28;20641;-69
2022/12/22 09:38:48;;;;;;;84.33;27.70;;;8.90;99.90;;;;;;5089748;28;20297;-69
2022/12/22 09:41:17;;;;;;;76.13;27.37;;;8.80;99.90;;;;;;5090195;28;20693;-70
2022/12/22 09:43:45;;;;;;;86.10;28.87;;;8.80;99.90;;;;;;5086876;28;20192;-70
2022/12/22 09:46:28;;;;;;;94.90;30.47;;;8.70;99.90;;;;;;5090371;28;20258;-70
2022/12/22 09:48:55;;;;;;;85.37;28.60;;;8.70;99.90;;;;;;5089545;28;20314;-70
2022/12/22 09:51:23;;;;;;;87.43;27.47;;;8.60;99.90;;;;;;5109860;28;20214;-70
2022/12/22 09:54:00;;;;;;;85.47;29.40;;;8.70;99.90;;;;;;5107040;28;20558;-71
2022/12/22 09:56:28;;;;;;;68.80;24.73;;;8.70;99.90;;;;;;5108079;28;20585;-71
2022/12/22 09:58:55;;;;;;;62.50;23.17;;;8.60;99.90;;;;;;5091026;28;20304;-70
2022/12/22 10:01:51;;;;;;;78.07;26.13;;;8.60;99.90;;;;;;5108394;28;20222;-68
2022/12/22 10:04:40;;;;;;;73.03;23.37;;;8.60;99.90;;;;;;5107080;28;20594;-69
2022/12/22 10:07:14;;;;;;;66.17;23.47;;;8.50;99.90;;;;;;5107378;28;20263;-70
2022/12/22 10:09:41;;;;;;;66.77;23.03;;;8.50;99.90;;;;;;5106153;28;20408;-70
2022/12/22 10:12:21;;;;;;;75.27;23.03;;;8.40;99.90;;;;;;5093808;28;20309;-70
2022/12/22 10:14:50;;;;;;;69.97;21.27;;;8.50;99.90;;;;;;5089569;28;20304;-70
2022/12/22 10:17:27;;;;;;;66.10;21.60;;;8.40;99.90;;;;;;5107472;28;20217;-70
2022/12/22 10:20:13;;;;;;;71.27;23.60;;;8.40;99.90;;;;;;5110444;28;20228;-69
2022/12/22 10:22:58;;;;;;;67.57;23.10;;;8.40;99.90;;;;;;5109979;28;20201;-69
2022/12/22 10:25:32;;;;;;;61.57;22.13;;;8.50;99.90;;;;;;5108950;28;20204;-69
2022/12/22 10:28:32;;;;;;;70.43;22.40;;;8.40;99.90;;;;;;5108825;28;20593;-70
2022/12/22 10:31:24;;;;;;;62.73;21.53;;;8.40;99.90;;;;;;5113815;28;20220;-69
2022/12/22 10:33:53;;;;;;;63.70;22.13;;;8.40;99.90;;;;;;5110837;28;20248;-69
2022/12/22 10:36:31;;;;;;;66.33;21.90;;;8.40;99.90;;;;;;5114012;28;20241;-70
2022/12/22 10:39:09;;;;;;;59.60;19.20;;;8.40;99.90;;;;;;5095414;28;20286;-69
2022/12/22 10:41:40;;;;;;;54.67;21.90;;;8.40;99.90;;;;;;5111391;28;20239;-68
2022/12/22 10:44:08;;;;;;;55.37;20.83;;;8.40;99.90;;;;;;5109671;28;20231;-68
2022/12/22 10:46:39;;;;;;;62.30;20.60;;;8.40;99.90;;;;;;5111311;28;20260;-70
2022/12/22 10:49:20;;;;;;;60.27;20.97;;;8.40;99.90;;;;;;5113520;28;20233;-69
2022/12/22 10:51:53;;;;;;;57.97;22.50;;;8.40;99.90;;;;;;5112279;28;20301;-70
2022/12/22 10:54:42;;;;;;;49.87;19.50;;;8.40;99.90;;;;;;5090611;28;20725;-70
2022/12/22 10:57:29;;;;;;;52.70;18.70;;;8.40;99.90;;;;;;5107118;28;20347;-69
2022/12/22 10:59:59;;;;;;;46.10;16.33;;;8.40;99.90;;;;;;5111953;28;20268;-69
2022/12/22 11:02:31;;;;;;;43.63;17.83;;;8.40;99.90;;;;;;5112892;28;20309;-70
2022/12/22 11:05:17;;;;;;;45.20;15.80;;;8.40;99.90;;;;;;5113278;28;20693;-70
2022/12/22 11:07:48;;;;;;;43.97;17.13;;;8.40;99.90;;;;;;5113058;28;20562;-69
2022/12/22 11:10:29;;;;;;;40.13;15.07;;;8.40;99.90;;;;;;5108180;28;20205;-70
2022/12/22 11:13:30;;;;;;;42.20;15.27;;;8.40;99.90;;;;;;5110207;28;20244;-69
2022/12/22 11:16:21;;;;;;;42.30;14.70;;;8.30;99.90;;;;;;5110673;28;20243;-69
2022/12/22 11:19:11;;;;;;;37.73;13.60;;;8.40;99.90;;;;;;5110562;28;20197;-69
2022/12/22 11:21:48;;;;;;;35.67;12.40;;;8.40;99.90;;;;;;5081891;28;20206;-69
2022/12/22 11:24:17;;;;;;;34.80;12.73;;;8.50;99.90;;;;;;5111994;28;20239;-69
2022/12/22 11:26:47;;;;;;;37.00;12.77;;;8.50;99.90;;;;;;5092503;28;20202;-69
2022/12/22 11:29:34;;;;;;;35.07;13.13;;;8.50;99.90;;;;;;5108100;28;20194;-68
2022/12/22 11:32:26;;;;;;;28.77;12.43;;;8.50;99.90;;;;;;5091261;28;20216;-70
2022/12/22 11:35:34;;;;;;;28.23;11.13;;;8.60;99.90;;;;;;5110443;28;20645;-69
2022/12/22 11:38:20;;;;;;;31.97;11.30;;;8.60;99.90;;;;;;5110182;28;20253;-69
2022/12/22 11:40:59;;;;;;;28.77;11.90;;;8.60;99.90;;;;;;5106052;28;20336;-70
2022/12/22 11:43:26;;;;;;;31.03;10.77;;;8.60;99.90;;;;;;5108680;28;20662;-69
2022/12/22 11:45:58;;;;;;;26.93;11.13;;;8.60;99.90;;;;;;5107926;28;20300;-69
2022/12/22 11:49:02;;;;;;;29.00;12.13;;;8.60;99.90;;;;;;5092576;28;20667;-68
2022/12/22 11:51:38;;;;;;;28.37;12.57;;;8.70;99.90;;;;;;5111114;28;20633;-69
2022/12/22 11:54:39;;;;;;;30.63;12.40;;;8.70;99.90;;;;;;5111302;28;20197;-69
2022/12/22 11:57:24;;;;;;;24.43;10.67;;;8.70;99.90;;;;;;5109430;28;20615;-69
2022/12/22 12:00:10;;;;;;;23.60;11.67;;;8.70;99.90;;;;;;5109936;28;20334;-70
2022/12/22 12:03:21;;;;;;;21.73;9.53;;;8.70;99.90;;;;;;5090729;28;20301;-69
2022/12/22 12:06:19;;;;;;;24.40;10.50;;;8.80;99.90;;;;;;5109243;28;20317;-70
2022/12/22 12:09:00;;;;;;;25.87;10.00;;;8.90;99.90;;;;;;5108838;28;20263;-70
2022/12/22 12:11:33;;;;;;;24.80;9.93;;;8.90;99.90;;;;;;5111426;28;20238;-70
2022/12/22 12:14:26;;;;;;;21.23;10.17;;;8.90;99.90;;;;;;5109733;28;20198;-70
2022/12/22 12:17:11;;;;;;;20.03;9.97;;;9.00;99.90;;;;;;5105523;28;20676;-70
2022/12/22 12:19:57;;;;;;;28.27;9.90;;;9.00;99.90;;;;;;5108374;28;20290;-68
2022/12/22 12:22:45;;;;;;;20.03;9.50;;;9.00;99.90;;;;;;5109694;28;20284;-68
2022/12/22 12:25:30;;;;;;;18.40;8.47;;;9.00;99.90;;;;;;5108464;28;20603;-68
2022/12/22 12:28:22;;;;;;;21.53;8.80;;;9.00;99.90;;;;;;5109885;28;20301;-68
2022/12/22 12:30:51;;;;;;;14.00;8.70;;;9.10;99.90;;;;;;5108906;28;20293;-68
2022/12/22 12:33:43;;;;;;;18.90;8.77;;;9.10;99.90;;;;;;5111537;28;20206;-70
2022/12/22 12:36:32;;;;;;;20.43;9.23;;;9.10;99.90;;;;;;5109817;28;20582;-70
2022/12/22 12:39:17;;;;;;;16.97;8.90;;;9.10;99.90;;;;;;5109841;28;20198;-68
2022/12/22 12:42:17;;;;;;;16.03;8.27;;;9.00;99.90;;;;;;5111166;28;20238;-71
2022/12/22 12:44:45;;;;;;;19.40;9.10;;;9.10;99.90;;;;;;5103071;28;20222;-69
2022/12/22 12:47:24;;;;;;;18.73;8.60;;;9.10;99.90;;;;;;5090835;28;20222;-68
2022/12/22 12:49:54;;;;;;;18.40;9.20;;;9.20;99.90;;;;;;5108937;28;20235;-69
2022/12/22 12:52:42;;;;;;;17.80;9.37;;;9.20;99.90;;;;;;5107823;28;20291;-69
2022/12/22 12:55:37;;;;;;;22.27;10.60;;;9.20;99.90;;;;;;5106180;28;20211;-69
2022/12/22 12:58:09;;;;;;;18.67;9.70;;;9.20;99.90;;;;;;5104589;28;20234;-71
2022/12/22 13:00:36;;;;;;;31.10;11.57;;;9.20;99.90;;;;;;5106288;28;20250;-69
2022/12/22 13:03:27;;;;;;;20.73;10.27;;;9.20;99.90;;;;;;5108205;28;20732;-68
2022/12/22 13:06:43;;;;;;;22.73;10.83;;;9.20;99.90;;;;;;5109771;28;20218;-70
2022/12/22 13:09:19;;;;;;;23.03;10.60;;;9.30;99.90;;;;;;5105976;28;20621;-70
2022/12/22 13:12:53;;;;;;;26.27;12.07;;;9.30;99.90;;;;;;5109707;28;20199;-69
2022/12/22 13:15:35;;;;;;;25.83;12.27;;;9.30;99.90;;;;;;5108149;28;20198;-69
2022/12/22 13:18:07;;;;;;;27.20;12.33;;;9.40;99.90;;;;;;5110368;28;20219;-69
2022/12/22 13:20:36;;;;;;;29.27;12.83;;;9.50;99.90;;;;;;5090392;28;20263;-69
2022/12/22 13:23:11;;;;;;;29.27;12.77;;;9.50;99.90;;;;;;5110960;28;20663;-70
2022/12/22 13:25:46;;;;;;;26.30;13.30;;;9.60;99.90;;;;;;5109252;28;20624;-69
2022/12/22 13:28:18;;;;;;;26.63;13.77;;;9.60;99.90;;;;;;5108361;28;20214;-69
2022/12/22 13:30:55;;;;;;;30.93;13.50;;;9.60;99.90;;;;;;5110830;28;20183;-69
2022/12/22 13:33:26;;;;;;;35.93;15.37;;;9.70;99.90;;;;;;5090881;28;20290;-69
2022/12/22 13:35:53;;;;;;;28.10;13.97;;;9.70;99.90;;;;;;5106856;28;20199;-69
2022/12/22 13:38:33;;;;;;;31.83;14.33;;;9.70;99.90;;;;;;5110449;28;20199;-68
2022/12/22 13:41:16;;;;;;;29.17;15.43;;;9.70;99.90;;;;;;5110618;28;20231;-70
2022/12/22 13:43:57;;;;;;;26.20;14.30;;;9.80;99.90;;;;;;5108452;28;20209;-69
2022/12/22 13:46:25;;;;;;;31.60;15.00;;;9.70;99.90;;;;;;5109961;28;20725;-70
2022/12/22 13:48:55;;;;;;;26.73;13.67;;;9.70;99.90;;;;;;5107340;28;20450;-69
2022/12/22 13:51:23;;;;;;;26.83;13.50;;;9.70;99.90;;;;;;5109885;28;20214;-67
2022/12/22 13:54:00;;;;;;;23.93;12.33;;;9.70;99.90;;;;;;5110478;28;20286;-69
2022/12/22 13:56:40;;;;;;;24.13;11.83;;;9.70;99.90;;;;;;5106639;28;20219;-69
2022/12/22 13:59:22;;;;;;;22.83;11.57;;;9.70;99.90;;;;;;5107489;28;20293;-68
2022/12/22 14:01:51;;;;;;;21.23;10.83;;;9.60;99.90;;;;;;5106599;28;20236;-70
2022/12/22 14:04:17;;;;;;;18.73;10.30;;;9.60;99.90;;;;;;5112178;28;20195;-69
2022/12/22 14:06:44;;;;;;;24.30;11.33;;;9.60;99.90;;;;;;5092080;28;20203;-69
2022/12/22 14:09:13;;;;;;;23.90;11.87;;;9.60;99.90;;;;;;5113193;28;20209;-69
2022/12/22 14:11:42;;;;;;;22.37;11.37;;;9.60;99.90;;;;;;5109828;28;20316;-69
2022/12/22 14:14:26;;;;;;;20.10;11.10;;;9.50;99.90;;;;;;5112185;28;20207;-70
2022/12/22 14:16:56;;;;;;;23.73;11.73;;;9.50;99.90;;;;;;5113285;28;20225;-69
2022/12/22 14:19:24;;;;;;;24.43;11.80;;;9.40;99.90;;;;;;5110034;28;20199;-69
2022/12/22 14:22:10;;;;;;;21.43;11.30;;;9.40;99.90;;;;;;5114086;28;20309;-70
2022/12/22 14:24:54;;;;;;;20.37;11.40;;;9.30;99.90;;;;;;5111999;28;20206;-69
2022/12/22 14:28:01;;;;;;;19.40;10.70;;;9.30;99.90;;;;;;5112045;28;20195;-70
2022/12/22 14:30:30;;;;;;;25.23;10.97;;;9.20;99.90;;;;;;5112778;28;20237;-69
2022/12/22 14:33:33;;;;;;;25.77;12.10;;;9.10;99.90;;;;;;5110057;28;20219;-70
2022/12/22 14:36:15;;;;;;;24.40;12.63;;;9.10;99.90;;;;;;5100657;28;20238;-69
2022/12/22 14:38:47;;;;;;;25.37;12.73;;;9.00;99.90;;;;;;5114240;28;20253;-69
2022/12/22 14:41:43;;;;;;;25.00;12.93;;;9.00;99.90;;;;;;5110405;28;20219;-70
2022/12/22 14:44:23;;;;;;;27.27;13.77;;;9.10;99.90;;;;;;5094612;28;20207;-69
2022/12/22 14:47:11;;;;;;;25.07;13.70;;;8.90;99.90;;;;;;5089032;28;20214;-69
2022/12/22 14:49:46;;;;;;;28.03;14.03;;;8.90;99.90;;;;;;5111963;28;20239;-68
2022/12/22 14:52:32;;;;;;;27.60;14.00;;;8.90;99.90;;;;;;5110589;28;20725;-69
2022/12/22 14:54:59;;;;;;;31.20;15.63;;;8.90;99.90;;;;;;5111298;28;20205;-69
2022/12/22 14:57:39;;;;;;;30.40;15.30;;;8.80;99.90;;;;;;5110371;28;20298;-68
2022/12/22 15:00:20;;;;;;;27.80;15.17;;;8.80;99.90;;;;;;5093870;28;20278;-69
2022/12/22 15:03:00;;;;;;;31.43;16.23;;;8.80;99.90;;;;;;5086045;28;20419;-69
2022/12/22 15:05:34;;;;;;;31.47;15.20;;;8.90;99.90;;;;;;5109939;28;20677;-68
2022/12/22 15:08:01;;;;;;;37.77;17.83;;;8.90;99.90;;;;;;5109877;28;20207;-69
2022/12/22 15:10:42;;;;;;;32.10;16.47;;;9.00;99.90;;;;;;5112803;28;20199;-68
2022/12/22 15:13:22;;;;;;;34.13;15.87;;;9.00;99.90;;;;;;5112242;28;20290;-69
2022/12/22 15:15:52;;;;;;;32.33;16.73;;;9.00;99.90;;;;;;5105978;28;20213;-70
2022/12/22 15:18:24;;;;;;;35.93;18.60;;;9.00;99.90;;;;;;5093523;28;20350;-69
2022/12/22 15:20:52;;;;;;;35.97;18.67;;;9.00;99.90;;;;;;5088516;28;20246;-69
2022/12/22 15:23:19;;;;;;;35.87;17.80;;;9.00;99.90;;;;;;5111187;28;20203;-69
2022/12/22 15:25:45;;;;;;;34.83;18.50;;;9.00;99.90;;;;;;5110606;28;20731;-69
2022/12/22 15:28:13;;;;;;;42.37;19.37;;;8.90;99.90;;;;;;5112043;28;20282;-69
2022/12/22 15:30:40;;;;;;;40.40;18.87;;;9.00;99.90;;;;;;5107832;28;20199;-69
2022/12/22 15:33:15;;;;;;;43.43;19.33;;;9.00;99.90;;;;;;5112546;28;20758;-68
2022/12/22 15:35:43;;;;;;;42.60;20.53;;;9.00;99.90;;;;;;5106605;28;20671;-69
2022/12/22 15:38:19;;;;;;;43.93;21.33;;;9.00;99.90;;;;;;5113178;28;20195;-68
2022/12/22 15:40:47;;;;;;;45.90;21.07;;;9.00;99.90;;;;;;5109069;28;20230;-68
2022/12/22 15:43:14;;;;;;;44.10;22.10;;;9.00;99.90;;;;;;5110783;28;20257;-68
2022/12/22 15:46:04;;;;;;;49.57;22.93;;;9.00;99.90;;;;;;5110892;28;20229;-69
2022/12/22 15:48:34;;;;;;;47.53;22.17;;;9.10;99.90;;;;;;5112466;28;20353;-68
2022/12/22 15:51:03;;;;;;;45.60;22.47;;;9.00;99.90;;;;;;5112178;28;20326;-69
2022/12/22 15:53:31;;;;;;;45.77;21.63;;;9.00;99.90;;;;;;5112459;28;20249;-69
2022/12/22 15:55:58;;;;;;;46.17;21.70;;;9.00;99.90;;;;;;5109242;28;20200;-68
2022/12/22 15:58:29;;;;;;;48.87;22.20;;;9.00;99.90;;;;;;5107808;28;20710;-68
2022/12/22 16:00:56;;;;;;;46.57;22.37;;;9.00;99.90;;;;;;5106407;28;20255;-68
2022/12/22 16:03:22;;;;;;;49.50;22.87;;;9.00;99.90;;;;;;5103433;28;20207;-69
2022/12/22 16:05:51;;;;;;;52.03;22.33;;;9.00;99.90;;;;;;5108087;28;20723;-68
2022/12/22 16:08:28;;;;;;;49.20;22.50;;;9.00;99.90;;;;;;5108999;28;20294;-68
2022/12/22 16:10:55;;;;;;;46.83;21.70;;;9.00;99.90;;;;;;5103011;28;20244;-68
2022/12/22 16:13:28;;;;;;;48.07;22.67;;;9.00;99.90;;;;;;5108052;28;20643;-68
2022/12/22 16:15:56;;;;;;;52.93;22.50;;;9.00;99.90;;;;;;5101057;28;20214;-68
2022/12/22 16:18:23;;;;;;;55.60;24.70;;;9.00;99.90;;;;;;5109795;28;20279;-68
2022/12/22 16:20:50;;;;;;;53.17;24.40;;;9.00;99.90;;;;;;5105559;27;20210;-68
2022/12/22 16:23:20;;;;;;;56.70;24.90;;;9.00;99.90;;;;;;5110369;28;20207;-68
2022/12/22 16:25:49;;;;;;;54.87;26.63;;;9.00;99.90;;;;;;5105686;28;20206;-69
2022/12/22 16:28:23;;;;;;;62.37;26.90;;;9.00;99.90;;;;;;5108444;28;20211;-68
2022/12/22 16:30:50;;;;;;;63.27;27.97;;;9.00;99.90;;;;;;5106959;28;20200;-68
2022/12/22 16:33:18;;;;;;;61.43;26.97;;;9.00;99.90;;;;;;5110098;28;20615;-67
2022/12/22 16:35:46;;;;;;;61.47;28.20;;;9.00;99.90;;;;;;5110668;28;20293;-69
2022/12/22 16:38:12;;;;;;;68.37;27.80;;;9.00;99.90;;;;;;5106883;28;20302;-69
2022/12/22 16:40:47;;;;;;;69.40;29.57;;;9.00;99.90;;;;;;5106875;28;20198;-68
2022/12/22 16:43:27;;;;;;;71.57;30.47;;;9.00;99.90;;;;;;5108372;28;20342;-68
2022/12/22 16:46:15;;;;;;;68.90;29.17;;;9.00;99.90;;;;;;5102790;28;20256;-68